Flight Track Log - Related Links

Times and Time Zones

All times are in EDT time to prevent confusion due to time zone crossing. See the UAL6148 flight status page for this flight to view local times or setup timezone preferences in your user account.

Time Position Orientation Groundspeed Altitude Reporting Facility
EDT Latitude Longitude Course Direction KTS MPH feet Rate Location/Type
Sun 08:43:43 PM 40.8117 -96.7569 257° West 161 185 1,900  Level Minneapolis Center
Sun 08:44:19 PM 40.7878 -96.7786 214° Southwest 194 223 3,100 1,532 Climbing Minneapolis Center
Sun 08:45:17 PM 40.7861 -96.8447 268° West 206 237 4,300 1,950 Climbing Minneapolis Center
Sun 08:46:19 PM 40.7783 -96.9431 264° West 253 291 7,000 2,855 Climbing Minneapolis Center
Sun 08:47:00 PM 40.8453 -97.1536 253° West  Level FlightAware Approximate
Sun 08:47:21 PM 40.7642 -97.0606 261° West 268 308 10,200  Level Minneapolis Center
Sun 08:48:00 PM 40.8163 -97.2797 253° West  Level FlightAware Approximate
Sun 08:48:23 PM 40.7511 -97.1736 261° West 301 346 11,000  Level Minneapolis Center
Sun 08:49:00 PM 40.7895 -97.4102 257° West  Level FlightAware Approximate
Sun 08:49:37 PM 40.7372 -97.3078 262° West 354 407 11,900  Level Minneapolis Center
Sun 08:50:39 PM 40.7178 -97.4758 261° West 372 428 13,800 1,694 Climbing Minneapolis Center
Sun 08:51:41 PM 40.7019 -97.6122 261° West 375 432 15,400 1,548 Climbing Minneapolis Center
Sun 08:52:43 PM 40.6867 -97.7461 261° West 371 427 17,000 1,536 Climbing Minneapolis Center
Sun 08:53:46 PM 40.6708 -97.8797 261° West 369 425 18,600 1,536 Climbing Minneapolis Center
Sun 08:54:48 PM 40.6517 -98.0408 261° West 370 426 20,200 1,403 Climbing Minneapolis Center
Sun 08:55:50 PM 40.6347 -98.1786 261° West 376 433 21,500 1,258 Climbing Minneapolis Center
Sun 08:56:52 PM 40.6183 -98.3189 261° West 383 441 22,800 1,210 Climbing Minneapolis Center
Sun 08:57:54 PM 40.6056 -98.4594 263° West 385 443 24,000 1,210 Climbing Minneapolis Center
Sun 08:58:56 PM 40.6194 -98.6003 277° West 386 444 25,300 1,258 Climbing Minneapolis Center
Sun 08:59:58 PM 40.6325 -98.7403 277° West 384 442 26,600 1,210 Climbing Minneapolis Center
Sun 09:01:00 PM 40.6450 -98.8817 277° West 386 444 27,800 1,210 Climbing Minneapolis Center
Sun 09:02:02 PM 40.6567 -99.0219 276° West 384 442 29,100 1,355 Climbing Minneapolis Center
Sun 09:03:04 PM 40.6703 -99.1875 276° West 379 436 30,600 1,258 Climbing Minneapolis Center
Sun 09:04:06 PM 40.6825 -99.3261 277° West 379 436 31,700 677 Climbing Minneapolis Center
Sun 09:05:08 PM 40.6944 -99.4669 276° West 382 440 32,000 145 Climbing Minneapolis Center
Sun 09:06:10 PM 40.7056 -99.6156 276° West 398 458 32,000  Level Minneapolis Center
Sun 09:07:12 PM 40.7183 -99.7706 276° West 415 478 32,000  Level Minneapolis Center
Sun 09:08:14 PM 40.7319 -99.9261 277° West 423 487 32,000  Level Minneapolis Center
Sun 09:09:16 PM 40.7447 -100.0797 276° West 423 487 32,000  Level Minneapolis Center
Sun 09:10:18 PM 40.7589 -100.2642 276° West 422 486 32,000  Level Minneapolis Center
Sun 09:11:20 PM 40.7697 -100.4161 275° West 419 482 32,000  Level Minneapolis Center
Sun 09:12:22 PM 40.7814 -100.5675 276° West 417 480 32,000  Level Minneapolis Center
Sun 09:13:47 PM 40.7658 -100.7694 264° West 436 502 32,000  Level Denver Center
Sun 09:14:48 PM 40.7394 -100.9403 259° West 422 486 32,000  Level Denver Center
Sun 09:15:50 PM 40.7153 -101.0844 258° West 419 482 32,000  Level Denver Center
Sun 09:16:52 PM 40.6858 -101.2528 257° West 421 484 32,000  Level Denver Center
Sun 09:17:54 PM 40.6608 -101.3969 257° West 423 487 32,000  Level Denver Center
Sun 09:18:55 PM 40.6358 -101.5400 257° West 420 483 32,000  Level Denver Center
Sun 09:19:57 PM 40.6053 -101.7067 256° West 418 481 32,000  Level Denver Center
Sun 09:20:59 PM 40.5794 -101.8486 257° West 418 481 32,000  Level Denver Center
Sun 09:22:01 PM 40.5489 -102.0144 256° West 417 480 32,000  Level Denver Center
Sun 09:23:02 PM 40.5278 -102.1347 257° West 421 484 32,000  Level Denver Center
Sun 09:24:04 PM 40.4917 -102.3233 256° West 419 482 32,000  Level Denver Center
Sun 09:25:06 PM 40.4661 -102.4658 257° West 419 482 32,000  Level Denver Center
Sun 09:26:08 PM 40.4358 -102.6319 257° West 420 483 32,000  Level Denver Center
Sun 09:27:10 PM 40.4072 -102.7767 255° West 423 487 32,000  Level Denver Center
Sun 09:28:11 PM 40.3806 -102.9256 257° West 422 486 32,000 -390 Level Denver Center
Sun 09:29:13 PM 40.3528 -103.0722 256° West 417 480 31,200 -1,500 Descending Denver Center
Sun 09:30:15 PM 40.3253 -103.2150 256° West 407 468 28,900 -2,226 Descending Denver Center
Sun 09:31:17 PM 40.2975 -103.3569 256° West 405 466 26,600 -2,468 Descending Denver Center
Sun 09:32:19 PM 40.2644 -103.5219 255° West 392 451 23,800 -2,293 Descending Denver Center
Sun 09:33:20 PM 40.2389 -103.6517 256° West 374 430 21,900 -1,902 Descending Denver Center
Sun 09:34:22 PM 40.2167 -103.7756 257° West 354 407 19,900 -1,839 Descending Denver Center
Sun 09:35:24 PM 40.2025 -103.8908 261° West 306 352 18,100 -1,632 Descending Denver Center
Sun 09:36:38 PM 40.2153 -104.0019 279° West 311 358 16,200 -1,600 Descending Denver Center
Sun 09:37:39 PM 40.2242 -104.1092 276° West 298 343 14,500 -1,790 Descending Denver Center
Sun 09:38:42 PM 40.2372 -104.2469 277° West 296 341 12,500 -1,680 Descending Denver Center
Sun 09:39:44 PM 40.2183 -104.3464 256° West 281 323 11,000 -1,156 Descending Denver Center
Sun 09:40:57 PM 40.1942 -104.4369 251° West 265 305 9,900 -882 Descending Denver Center
Sun 09:42:00 PM 40.1683 -104.5422 252° West 235 270 9,000 -435 Descending Denver Center
Sun 09:43:01 PM 40.1231 -104.5897 219° Southwest 217 250 9,000 -98 Level Denver Center
Sun 09:44:03 PM 40.0728 -104.6297 211° Southwest 211 243 8,800 -194 Descending Denver Center

Login

Don't have an account? Register now (free) for customized features, flight alerts, and more!